Eagle Bay — CFN5487 — position and weather

sailwx.info

Track history (hours):
 
Tides and Currents Weather Stations Pressure Air Temp Water Temp Dewpoint Dewpoint Depression Visibility Wind Speed Wind Dir Waves Ship Positions

Eagle Bay

Last reported at 2017-Nov-16 23:28 UTC. Time now 2017-Nov-20 13:34 UTC.
Position N 54°19' W 130°19'.

Length 15 m.

Type: Ship. MMSI: 316013706.

Date/timePositionNaut miles runAvg speedWind from/ knotsBaromVisibWave heightAir tempDewpointWater temp
2017-Nov-16 23:28N 54°19' W 130°19'1 1.2
2017-Nov-16 23:00N 54°20' W 130°20'0 0.2
2017-Nov-16 22:30N 54°20' W 130°20'0 0.2
2017-Nov-16 21:59N 54°20' W 130°20'1 0.0
2017-Nov-14 23:34N 54°19' W 130°19'0 0.7
2017-Nov-14 23:30N 54°19' W 130°19'2 4.3
2017-Nov-14 22:59N 54°17' W 130°22'2 3.3
2017-Nov-14 22:30N 54°19' W 130°22'1 2.1
2017-Nov-14 22:01N 54°19' W 130°20'1 0.3
2017-Nov-14 19:41N 54°19' W 130°19'0 2.6
2017-Nov-14 19:30N 54°20' W 130°19'5 9.8
2017-Nov-14 19:00N 54°24' W 130°16'1 1.3
2017-Nov-14 18:30N 54°24' W 130°17'0 0.4
2017-Nov-14 18:00N 54°24' W 130°16'1 1.1
2017-Nov-14 17:30N 54°24' W 130°15'5 9.5
2017-Nov-14 17:00N 54°20' W 130°19'1 1.2
2017-Nov-14 16:29N 54°19' W 130°19'  
2017-Nov-09 22:01N 54°19' W 130°19'0 0.0
2017-Nov-09 22:00N 54°19' W 130°19'1 1.2
2017-Nov-09 21:30N 54°20' W 130°19'0 0.2
2017-Nov-09 21:00N 54°20' W 130°19'0 0.1
2017-Nov-09 20:31N 54°20' W 130°19'0 0.5
2017-Nov-09 20:00N 54°20' W 130°19'0 0.5
2017-Nov-09 19:30N 54°19' W 130°20'0 0.2
2017-Nov-09 19:00N 54°20' W 130°20'0 0.3
2017-Nov-09 18:30N 54°20' W 130°20'0 0.7
2017-Nov-09 18:01N 54°19' W 130°19'  
2017-Nov-06 23:37N 54°19' W 130°19'0 2.1
2017-Nov-06 23:30N 54°19' W 130°19'  
Track history (hours):
 
Tides and Currents Weather Stations Pressure Air Temp Water Temp Dewpoint Dewpoint Depression Visibility Wind Speed Wind Dir Waves Ship Positions

Eagle Bay

Last reported at 2017-Nov-16 23:28 UTC. Time now 2017-Nov-20 13:34 UTC.
Position N 54°19' W 130°19'.

Length 15 m.

Type: Ship. MMSI: 316013706.

Date/timePositionNaut miles runAvg speedWind from/ knotsBaromVisibWave heightAir tempDewpointWater temp
2017-Nov-16 23:28N 54°19' W 130°19'1 1.2
2017-Nov-16 23:00N 54°20' W 130°20'0 0.2
2017-Nov-16 22:30N 54°20' W 130°20'0 0.2
2017-Nov-16 21:59N 54°20' W 130°20'1 0.0
2017-Nov-14 23:34N 54°19' W 130°19'0 0.7
2017-Nov-14 23:30N 54°19' W 130°19'2 4.3
2017-Nov-14 22:59N 54°17' W 130°22'2 3.3
2017-Nov-14 22:30N 54°19' W 130°22'1 2.1
2017-Nov-14 22:01N 54°19' W 130°20'1 0.3
2017-Nov-14 19:41N 54°19' W 130°19'0 2.6
2017-Nov-14 19:30N 54°20' W 130°19'5 9.8
2017-Nov-14 19:00N 54°24' W 130°16'1 1.3
2017-Nov-14 18:30N 54°24' W 130°17'0 0.4
2017-Nov-14 18:00N 54°24' W 130°16'1 1.1
2017-Nov-14 17:30N 54°24' W 130°15'5 9.5
2017-Nov-14 17:00N 54°20' W 130°19'1 1.2
2017-Nov-14 16:29N 54°19' W 130°19'  
2017-Nov-09 22:01N 54°19' W 130°19'0 0.0
2017-Nov-09 22:00N 54°19' W 130°19'1 1.2
2017-Nov-09 21:30N 54°20' W 130°19'0 0.2
2017-Nov-09 21:00N 54°20' W 130°19'0 0.1
2017-Nov-09 20:31N 54°20' W 130°19'0 0.5
2017-Nov-09 20:00N 54°20' W 130°19'0 0.5
2017-Nov-09 19:30N 54°19' W 130°20'0 0.2
2017-Nov-09 19:00N 54°20' W 130°20'0 0.3
2017-Nov-09 18:30N 54°20' W 130°20'0 0.7
2017-Nov-09 18:01N 54°19' W 130°19'  
2017-Nov-06 23:37N 54°19' W 130°19'0 2.1
2017-Nov-06 23:30N 54°19' W 130°19'  

Dump ship's entire track history